Time;durP1;ratioP1;P1;durP2;ratioP2;P2;SDS_P1;SDS_P2;PMS_P1;PMS_P2;Temp;Humidity;BMP_temperature;BMP_pressure;BME280_temperature;BME280_humidity;BME280_pressure;Samples;Min_cycle;Max_cycle;Signal;HPM_P1;HPM_P2
2022/03/15 00:02:52;;;;;;;9.50;6.33;;;;;;;-1.19;72.13;99094.28;6221791;28;20234;-68
2022/03/15 00:05:54;;;;;;;9.07;6.37;;;;;;;-1.20;71.90;99087.41;6225783;28;20231;-69
2022/03/15 00:08:56;;;;;;;10.57;6.90;;;;;;;-1.15;71.98;99083.03;6225214;28;20325;-68
2022/03/15 00:12:00;;;;;;;11.23;7.33;;;;;;;-1.13;72.24;99089.06;6212347;28;20239;-69
2022/03/15 00:15:02;;;;;;;9.10;7.17;;;;;;;-1.09;72.09;99092.44;6231764;28;20219;-69
2022/03/15 00:18:04;;;;;;;8.80;6.43;;;;;;;-1.08;72.10;99094.16;6229955;28;20218;-69
2022/03/15 00:21:10;;;;;;;8.97;6.50;;;;;;;-1.07;71.90;99093.28;6230687;28;20546;-68
2022/03/15 00:24:12;;;;;;;10.73;7.03;;;;;;;-1.13;72.09;99091.66;6231344;28;20212;-68
2022/03/15 00:27:14;;;;;;;10.50;6.87;;;;;;;-1.17;71.99;99082.19;6231633;28;20220;-68
2022/03/15 00:30:17;;;;;;;8.80;6.57;;;;;;;-1.21;72.09;99076.19;6228964;28;20227;-68
2022/03/15 00:33:21;;;;;;;10.90;6.83;;;;;;;-1.23;72.31;99075.34;6230533;28;20234;-68
2022/03/15 00:36:25;;;;;;;9.40;6.70;;;;;;;-1.26;72.69;99077.09;6229374;28;20220;-68
2022/03/15 00:39:46;;;;;;;11.40;7.23;;;;;;;-1.31;72.77;99073.72;6210292;28;20266;-69
2022/03/15 00:42:52;;;;;;;8.57;6.43;;;;;;;-1.29;72.92;99072.81;6226659;28;20230;-68
2022/03/15 00:46:00;;;;;;;10.17;7.30;;;;;;;-1.25;72.85;99074.50;6225353;28;20250;-69
2022/03/15 00:49:02;;;;;;;9.47;6.83;;;;;;;-1.25;72.82;99063.28;6226635;28;20224;-69
2022/03/15 00:52:05;;;;;;;9.10;6.97;;;;;;;-1.24;73.11;99060.69;6226330;28;20236;-69
2022/03/15 00:55:08;;;;;;;8.80;5.80;;;;;;;-1.21;73.04;99052.88;6227186;28;20250;-69
2022/03/15 00:58:11;;;;;;;9.43;7.30;;;;;;;-1.22;72.65;99051.16;6226047;28;20714;-69
2022/03/15 01:01:13;;;;;;;10.60;7.00;;;;;;;-1.28;73.02;99048.63;6226398;28;20289;-69
2022/03/15 01:04:15;;;;;;;10.13;6.97;;;;;;;-1.35;73.41;99047.00;6209186;28;20236;-69
2022/03/15 01:07:17;;;;;;;9.53;7.23;;;;;;;-1.32;73.47;99048.69;6226087;28;20719;-69
2022/03/15 01:10:20;;;;;;;10.27;7.17;;;;;;;-1.26;74.09;99051.22;6226493;28;20231;-69
2022/03/15 01:13:22;;;;;;;12.07;7.60;;;;;;;-1.24;73.90;99050.31;6226229;28;20648;-68
2022/03/15 01:16:24;;;;;;;12.50;7.43;;;;;;;-1.24;73.97;99046.88;6216682;28;20238;-69
2022/03/15 01:19:26;;;;;;;10.90;7.53;;;;;;;-1.23;74.02;99041.69;6222494;28;20235;-69
2022/03/15 01:22:29;;;;;;;12.73;7.73;;;;;;;-1.19;74.03;99045.94;6210536;28;20567;-69
2022/03/15 01:25:31;;;;;;;10.33;7.77;;;;;;;-1.19;74.50;99043.34;6227462;28;20246;-69
2022/03/15 01:28:33;;;;;;;12.17;7.60;;;;;;;-1.18;74.21;99039.88;6227787;28;20738;-68
2022/03/15 01:31:35;;;;;;;9.43;6.80;;;;;;;-1.15;74.27;99033.81;6227773;28;20610;-69
2022/03/15 01:34:37;;;;;;;10.57;7.10;;;;;;;-1.12;74.04;99031.19;6227874;28;20583;-69
2022/03/15 01:37:39;;;;;;;10.33;7.17;;;;;;;-1.06;74.40;99023.34;6227625;28;20695;-69
2022/03/15 01:40:43;;;;;;;12.17;8.00;;;;;;;-0.97;74.39;99022.38;6211546;28;20246;-68
2022/03/15 01:43:47;;;;;;;11.87;7.53;;;;;;;-0.92;74.85;99018.84;6227201;28;20266;-69
2022/03/15 01:46:50;;;;;;;9.67;7.07;;;;;;;-0.92;74.28;99026.63;6226922;28;20239;-69
2022/03/15 01:49:53;;;;;;;10.40;7.40;;;;;;;-0.91;74.28;99020.56;6228483;28;20243;-69
2022/03/15 01:52:55;;;;;;;12.50;7.17;;;;;;;-0.86;74.43;99023.94;6227321;28;20234;-69
2022/03/15 01:55:58;;;;;;;10.03;7.00;;;;;;;-0.84;74.18;99019.59;6228218;28;20227;-69
2022/03/15 01:59:00;;;;;;;10.17;7.30;;;;;;;-0.86;73.71;99020.50;6226899;28;20224;-69
2022/03/15 02:02:03;;;;;;;12.13;7.10;;;;;;;-0.87;73.98;99026.56;6211787;28;20262;-69
2022/03/15 02:05:06;;;;;;;10.30;7.30;;;;;;;-0.85;74.27;99017.88;6226078;28;20228;-69
2022/03/15 02:08:16;;;;;;;10.37;7.27;;;;;;;-0.84;74.23;99013.56;6228576;28;20227;-69
2022/03/15 02:11:18;;;;;;;12.03;6.97;;;;;;;-0.87;73.90;99014.44;6228339;28;20864;-69
2022/03/15 02:14:21;;;;;;;8.87;6.53;;;;;;;-0.90;73.96;99009.31;6227362;28;20235;-69
2022/03/15 02:17:23;;;;;;;9.77;6.83;;;;;;;-0.92;73.75;99013.69;6228264;28;20573;-68
2022/03/15 02:20:26;;;;;;;11.20;7.10;;;;;;;-0.95;74.15;99003.34;6227869;28;20239;-69
2022/03/15 02:23:28;;;;;;;11.20;7.80;;;;;;;-0.97;74.28;99012.00;6226791;28;20394;-69
2022/03/15 02:26:30;;;;;;;11.63;7.90;;;;;;;-0.98;74.49;99015.47;6226237;28;20231;-69
2022/03/15 02:29:33;;;;;;;10.50;7.03;;;;;;;-1.01;74.41;99011.19;6226028;28;20223;-69
2022/03/15 02:32:35;;;;;;;8.70;6.87;;;;;;;-1.04;74.27;99011.22;6226311;28;20238;-69
2022/03/15 02:35:38;;;;;;;10.20;7.53;;;;;;;-1.04;74.48;99011.22;6224938;28;20232;-69
2022/03/15 02:38:41;;;;;;;10.93;7.70;;;;;;;-1.03;74.40;99010.38;6227737;28;20374;-70
2022/03/15 02:41:43;;;;;;;9.50;6.93;;;;;;;-1.04;74.80;99011.22;6228109;28;20629;-69
2022/03/15 02:44:45;;;;;;;9.67;7.30;;;;;;;-1.04;74.32;99010.38;6227836;28;20239;-68
2022/03/15 02:47:48;;;;;;;11.43;8.00;;;;;;;-1.02;74.62;99009.50;6228468;28;20238;-69
2022/03/15 02:50:50;;;;;;;12.17;8.17;;;;;;;-1.01;74.71;99011.19;6225747;28;20235;-69
2022/03/15 02:53:53;;;;;;;11.77;7.80;;;;;;;-1.03;74.49;99009.50;6225540;28;20234;-69
2022/03/15 02:56:55;;;;;;;10.90;7.83;;;;;;;-1.06;74.28;99010.38;6226764;28;20223;-69
2022/03/15 02:59:57;;;;;;;10.30;7.50;;;;;;;-1.12;74.50;99013.06;6225138;28;20241;-69
2022/03/15 03:02:59;;;;;;;12.07;7.77;;;;;;;-1.13;74.50;99013.94;6227052;28;20239;-69
2022/03/15 03:06:03;;;;;;;11.07;7.60;;;;;;;-1.17;74.48;99015.69;6226665;28;20615;-69
2022/03/15 03:09:05;;;;;;;9.87;7.57;;;;;;;-1.18;74.62;99010.53;6227808;28;20632;-69
2022/03/15 03:12:08;;;;;;;10.13;7.40;;;;;;;-1.17;74.73;99004.47;6225529;28;20218;-69
2022/03/15 03:15:12;;;;;;;11.13;7.80;;;;;;;-1.17;74.65;99012.25;6227268;28;20224;-69
2022/03/15 03:18:15;;;;;;;12.07;6.83;;;;;;;-1.21;74.63;99002.81;6226367;28;20330;-69
2022/03/15 03:21:17;;;;;;;12.17;8.43;;;;;;;-1.23;74.43;99002.84;6227224;28;20277;-69
2022/03/15 03:24:24;;;;;;;10.17;7.43;;;;;;;-1.25;74.88;99006.31;6220384;28;20220;-69
2022/03/15 03:27:26;;;;;;;10.57;6.37;;;;;;;-1.28;74.81;99006.34;6224833;28;20227;-69
2022/03/15 03:30:29;;;;;;;10.00;7.13;;;;;;;-1.28;74.61;99007.19;6225148;28;20223;-68
2022/03/15 03:33:31;;;;;;;11.90;7.47;;;;;;;-1.28;74.66;99007.19;6226787;28;20856;-70
2022/03/15 03:36:42;;;;;;;12.93;8.07;;;;;;;-1.31;74.84;99004.66;6226588;28;20740;-70
2022/03/15 03:40:07;;;;;;;13.00;7.63;;;;;;;-1.32;74.80;99004.69;6223724;28;20238;-70
2022/03/15 03:43:09;;;;;;;10.17;7.33;;;;;;;-1.32;74.86;99004.69;6225271;28;20385;-70
2022/03/15 03:46:11;;;;;;;10.83;8.20;;;;;;;-1.30;74.79;99005.53;6225364;28;20231;-70
2022/03/15 03:49:14;;;;;;;11.53;7.77;;;;;;;-1.27;74.89;99005.47;6226491;28;20620;-70
2022/03/15 03:52:16;;;;;;;11.60;7.73;;;;;;;-1.27;75.20;99002.88;6224178;28;20358;-70
2022/03/15 03:55:18;;;;;;;10.93;7.43;;;;;;;-1.30;75.08;99003.78;6224337;28;20819;-70
2022/03/15 03:58:21;;;;;;;13.13;8.50;;;;;;;-1.30;75.08;99003.78;6226233;28;20748;-69
2022/03/15 04:01:23;;;;;;;13.20;7.80;;;;;;;-1.30;74.51;99000.34;6223748;28;20242;-69
2022/03/15 04:04:26;;;;;;;10.27;7.40;;;;;;;-1.35;74.93;98999.53;6226345;28;20733;-69
2022/03/15 04:07:29;;;;;;;12.47;7.87;;;;;;;-1.38;74.68;98995.22;6226221;28;20637;-69
2022/03/15 04:10:32;;;;;;;12.20;7.53;;;;;;;-1.39;74.95;99006.47;6225748;28;20223;-69
2022/03/15 04:13:35;;;;;;;11.93;7.77;;;;;;;-1.43;74.85;99003.94;6226065;28;20243;-69
2022/03/15 04:16:38;;;;;;;12.17;7.77;;;;;;;-1.46;75.11;99001.38;6223875;28;20243;-69
2022/03/15 04:19:40;;;;;;;10.67;7.07;;;;;;;-1.48;75.23;98997.06;6225908;28;20246;-69
2022/03/15 04:22:43;;;;;;;11.23;7.40;;;;;;;-1.46;75.35;98999.66;6226789;28;20231;-69
2022/03/15 04:25:45;;;;;;;9.60;7.37;;;;;;;-1.45;74.86;98998.78;6226169;28;20718;-69
2022/03/15 04:28:47;;;;;;;10.07;6.87;;;;;;;-1.44;74.97;98997.03;6224539;28;20227;-69
2022/03/15 04:31:49;;;;;;;10.97;7.47;;;;;;;-1.48;75.27;98994.47;6225220;28;20224;-69
2022/03/15 04:34:52;;;;;;;8.73;6.83;;;;;;;-1.45;75.12;98995.31;6226155;28;20224;-69
2022/03/15 04:37:54;;;;;;;13.57;7.57;;;;;;;-1.45;75.26;98990.16;6225547;28;20672;-69
2022/03/15 04:40:58;;;;;;;11.33;8.03;;;;;;;-1.46;75.00;98985.84;6226061;28;20726;-69
2022/03/15 04:44:00;;;;;;;10.67;7.27;;;;;;;-1.45;75.26;98984.97;6226453;28;20734;-69
2022/03/15 04:47:03;;;;;;;13.23;7.30;;;;;;;-1.43;75.28;98986.69;6225088;28;20609;-69
2022/03/15 04:50:06;;;;;;;11.40;7.47;;;;;;;-1.45;75.31;98982.38;6226201;28;20227;-69
2022/03/15 04:53:08;;;;;;;10.70;7.40;;;;;;;-1.45;75.34;98980.66;6226063;28;20231;-69
2022/03/15 04:56:10;;;;;;;10.30;7.10;;;;;;;-1.44;75.49;98976.34;6225923;28;20227;-69
2022/03/15 04:59:12;;;;;;;10.27;7.47;;;;;;;-1.39;75.52;98977.13;6230161;28;20567;-69
2022/03/15 05:02:14;;;;;;;13.13;7.63;;;;;;;-1.36;75.49;98977.97;6229550;28;20228;-69
2022/03/15 05:05:16;;;;;;;14.03;8.67;;;;;;;-1.35;75.13;98979.66;6228261;28;20278;-69
2022/03/15 05:08:18;;;;;;;12.33;7.73;;;;;;;-1.31;75.44;98976.19;6228052;28;20223;-69
2022/03/15 05:11:20;;;;;;;14.30;7.97;;;;;;;-1.28;75.33;98975.25;6228454;28;20590;-69
2022/03/15 05:14:22;;;;;;;8.77;6.40;;;;;;;-1.30;75.11;98971.88;6230493;28;20231;-69
2022/03/15 05:17:24;;;;;;;9.87;7.13;;;;;;;-1.30;75.55;98971.88;6229520;28;20603;-68
2022/03/15 05:20:28;;;;;;;13.20;7.87;;;;;;;-1.25;74.86;98964.88;6230564;28;20239;-68
2022/03/15 05:23:30;;;;;;;11.33;7.37;;;;;;;-1.19;75.15;98963.06;6228954;28;20230;-73
2022/03/15 05:26:33;;;;;;;12.33;8.13;;;;;;;-1.12;75.37;98969.91;6231478;28;20220;-72
2022/03/15 05:29:36;;;;;;;10.90;7.20;;;;;;;-1.07;75.23;98968.97;6229601;28;20612;-72
2022/03/15 05:32:38;;;;;;;12.20;7.33;;;;;;;-1.00;75.02;98962.84;6230821;28;20637;-72
2022/03/15 05:35:40;;;;;;;9.10;6.87;;;;;;;-0.92;74.68;98956.66;6229524;28;20319;-71
2022/03/15 05:38:43;;;;;;;9.77;7.27;;;;;;;-0.83;74.55;98961.72;6228891;28;20761;-73
2022/03/15 05:41:45;;;;;;;10.17;6.77;;;;;;;-0.76;74.37;98963.34;6231747;28;20303;-72
2022/03/15 05:44:47;;;;;;;10.33;7.33;;;;;;;-0.65;74.13;98970.09;6229376;28;20234;-74
2022/03/15 05:47:49;;;;;;;11.23;7.13;;;;;;;-0.58;74.31;98959.59;6228171;28;20262;-73
2022/03/15 05:50:51;;;;;;;10.30;7.17;;;;;;;-0.45;74.32;98966.31;6227232;28;20230;-72
2022/03/15 05:53:53;;;;;;;10.43;6.90;;;;;;;-0.33;74.17;98962.69;6226336;28;20596;-72
2022/03/15 05:56:55;;;;;;;10.87;6.90;;;;;;;-0.26;73.30;98956.50;6229201;28;20268;-72
2022/03/15 05:59:57;;;;;;;8.53;6.50;;;;;;;-0.16;73.47;98954.63;6226981;28;20231;-71
2022/03/15 06:02:59;;;;;;;13.40;8.17;;;;;;;-0.11;73.15;98953.69;6227833;28;20235;-73
2022/03/15 06:06:03;;;;;;;10.67;6.97;;;;;;;-0.07;72.96;98950.13;6227739;28;20232;-72
2022/03/15 06:09:05;;;;;;;11.20;7.10;;;;;;;0.06;72.68;98949.91;6228953;28;20223;-72
2022/03/15 06:12:09;;;;;;;10.10;7.30;;;;;;;0.25;72.20;98957.34;6227535;28;20261;-74
2022/03/15 06:15:11;;;;;;;12.90;8.73;;;;;;;0.38;71.81;98952.78;6227995;28;20223;-72
2022/03/15 06:18:13;;;;;;;10.73;7.63;;;;;;;0.51;71.29;98950.78;6231348;28;20223;-73
2022/03/15 06:21:18;;;;;;;17.97;6.67;;;;;;;0.60;71.32;98950.63;6230467;28;20741;-70
2022/03/15 06:24:20;;;;;;;11.93;7.97;;;;;;;0.72;71.06;98950.34;6229479;28;20735;-71
2022/03/15 06:27:22;;;;;;;9.57;7.33;;;;;;;0.82;70.88;98958.81;6234338;28;20231;-73
2022/03/15 06:30:24;;;;;;;11.10;7.83;;;;;;;0.89;69.96;98952.63;6234292;28;20227;-72
2022/03/15 06:33:26;;;;;;;12.70;7.27;;;;;;;1.01;69.44;98942.78;6230450;28;20227;-72
2022/03/15 06:36:43;;;;;;;16.03;9.20;;;;;;;1.15;68.96;98945.09;6231292;28;20228;-72
2022/03/15 06:39:45;;;;;;;11.57;8.00;;;;;;;1.28;67.96;98935.28;6231006;28;20597;-72
2022/03/15 06:42:48;;;;;;;12.83;7.63;;;;;;;1.41;68.16;98939.28;6227953;28;20246;-72
2022/03/15 06:45:50;;;;;;;10.47;7.47;;;;;;;1.53;67.97;98936.41;6232603;28;20224;-71
2022/03/15 06:48:52;;;;;;;11.20;7.07;;;;;;;1.64;67.05;98934.41;6230091;28;20730;-73
2022/03/15 06:51:54;;;;;;;11.53;8.23;;;;;;;1.74;66.49;98935.88;6228454;28;20222;-72
2022/03/15 06:54:55;;;;;;;10.30;8.10;;;;;;;1.86;66.31;98932.13;6213052;28;20223;-72
2022/03/15 06:57:58;;;;;;;12.90;8.80;;;;;;;2.01;65.46;98939.53;6229866;28;20270;-73
2022/03/15 07:01:01;;;;;;;13.53;9.43;;;;;;;2.11;65.56;98937.53;6227488;28;20250;-71
2022/03/15 07:04:04;;;;;;;16.50;9.10;;;;;;;2.27;65.41;98932.78;6227066;28;20725;-72
2022/03/15 07:07:06;;;;;;;13.30;9.87;;;;;;;2.43;64.83;98928.84;6230243;28;20231;-71
2022/03/15 07:10:10;;;;;;;13.03;8.80;;;;;;;2.59;64.38;98917.13;6228865;28;20235;-73
2022/03/15 07:13:12;;;;;;;14.03;9.70;;;;;;;2.80;63.68;98916.47;6228944;28;20240;-73
2022/03/15 07:16:15;;;;;;;12.87;10.00;;;;;;;2.98;63.12;98915.09;6227545;28;20227;-74
2022/03/15 07:19:17;;;;;;;15.33;10.03;;;;;;;3.14;62.38;98916.34;6227979;28;20232;-71
2022/03/15 07:22:20;;;;;;;14.93;9.90;;;;;;;3.33;62.03;98914.88;6228897;28;20244;-72
2022/03/15 07:25:22;;;;;;;16.63;9.07;;;;;;;3.47;61.46;98901.38;6228295;28;20236;-71
2022/03/15 07:28:24;;;;;;;14.87;9.47;;;;;;;3.62;60.73;98905.25;6226327;28;20636;-73
2022/03/15 07:31:26;;;;;;;16.93;10.50;;;;;;;3.79;60.80;98902.94;6226915;28;20617;-72
2022/03/15 07:34:28;;;;;;;16.63;9.60;;;;;;;4.01;59.79;98903.06;6228702;28;20242;-72
2022/03/15 07:37:30;;;;;;;16.67;10.17;;;;;;;4.18;59.58;98899.88;6211526;28;20663;-72
2022/03/15 07:40:32;;;;;;;16.67;10.37;;;;;;;4.31;59.11;98901.97;6227198;28;20235;-73
2022/03/15 07:43:34;;;;;;;13.47;9.77;;;;;;;4.40;58.97;98899.03;6227737;28;20233;-72
2022/03/15 07:46:37;;;;;;;14.13;9.90;;;;;;;4.52;58.23;98887.28;6228144;28;20237;-73
2022/03/15 07:49:41;;;;;;;15.50;10.40;;;;;;;4.72;57.69;98881.31;6225345;28;20228;-69
2022/03/15 07:52:43;;;;;;;17.10;10.83;;;;;;;4.87;57.33;98875.53;6226575;28;20231;-72
2022/03/15 07:55:45;;;;;;;15.73;11.30;;;;;;;4.95;56.54;98881.31;6226516;28;20341;-71
2022/03/15 07:58:47;;;;;;;15.13;11.70;;;;;;;5.04;56.92;98877.47;6229413;28;20234;-71
2022/03/15 08:01:49;;;;;;;21.07;11.77;;;;;;;5.18;56.77;98869.97;6230827;28;20227;-71
2022/03/15 08:04:53;;;;;;;18.60;11.57;;;;;;;5.40;56.16;98865.53;6223685;28;20320;-72
2022/03/15 08:07:56;;;;;;;15.20;10.73;;;;;;;5.68;55.54;98857.44;6229464;28;20357;-72
2022/03/15 08:10:58;;;;;;;17.37;11.10;;;;;;;5.99;55.38;98861.41;6228996;28;20227;-72
2022/03/15 08:14:00;;;;;;;15.17;10.77;;;;;;;6.30;54.24;98865.22;6226839;28;21174;-70
2022/03/15 08:17:02;;;;;;;13.50;10.20;;;;;;;6.55;53.75;98864.16;6226781;28;20726;-72
2022/03/15 08:20:05;;;;;;;15.23;11.00;;;;;;;6.75;53.15;98869.34;6225815;28;20750;-72
2022/03/15 08:23:12;;;;;;;17.20;12.60;;;;;;;6.86;52.66;98867.06;6226939;28;20318;-72
2022/03/15 08:26:15;;;;;;;17.13;11.47;;;;;;;6.91;52.39;98870.31;6228411;28;20300;-73
2022/03/15 08:29:17;;;;;;;16.87;11.20;;;;;;;7.10;51.85;98854.56;6228347;28;20277;-70
2022/03/15 08:32:18;;;;;;;16.17;12.33;;;;;;;7.31;51.08;98852.69;6226431;28;20590;-73
2022/03/15 08:35:22;;;;;;;16.83;11.27;;;;;;;7.60;50.43;98846.84;6232485;28;20362;-72
2022/03/15 08:38:26;;;;;;;15.13;11.60;;;;;;;7.91;49.34;98843.53;6233272;28;20878;-72
2022/03/15 08:41:27;;;;;;;16.07;11.13;;;;;;;8.25;48.42;98841.81;6232562;28;20241;-71
2022/03/15 08:44:29;;;;;;;18.23;10.93;;;;;;;8.55;47.94;98842.84;6235055;28;20609;-72
2022/03/15 08:47:33;;;;;;;19.53;11.10;;;;;;;8.76;47.88;98836.44;6233243;28;20233;-72
2022/03/15 08:50:35;;;;;;;16.77;12.00;;;;;;;8.94;46.12;98829.31;6230605;28;20251;-72
2022/03/15 08:53:38;;;;;;;14.93;11.13;;;;;;;9.16;46.02;98834.22;6237586;28;20320;-73
2022/03/15 08:56:41;;;;;;;13.80;10.73;;;;;;;9.41;45.09;98824.00;6238224;28;20336;-71
2022/03/15 08:59:43;;;;;;;15.30;10.47;;;;;;;9.80;44.17;98828.72;6232865;28;20592;-70
2022/03/15 09:02:45;;;;;;;17.70;10.47;;;;;;;10.24;43.50;98820.84;6232135;28;20330;-72
2022/03/15 09:05:48;;;;;;;13.60;10.30;;;;;;;10.75;42.38;98808.00;6231808;28;20721;-71
2022/03/15 09:08:53;;;;;;;14.83;10.47;;;;;;;11.29;41.76;98808.06;6231247;28;20235;-72
2022/03/15 09:11:55;;;;;;;16.50;10.43;;;;;;;11.80;40.71;98791.41;6246338;28;20234;-72
2022/03/15 09:14:56;;;;;;;12.57;9.37;;;;;;;12.41;38.68;98784.56;6231244;28;20243;-73
2022/03/15 09:17:59;;;;;;;14.23;8.63;;;;;;;12.87;38.24;98787.44;6219570;28;20224;-72
2022/03/15 09:21:01;;;;;;;12.87;8.90;;;;;;;12.54;36.21;98777.44;6229563;28;20238;-70
2022/03/15 09:24:03;;;;;;;12.63;8.73;;;;;;;12.70;36.97;98776.34;6233684;28;20565;-73
2022/03/15 09:27:05;;;;;;;11.80;8.27;;;;;;;12.83;35.95;98763.91;6230545;28;20212;-73
2022/03/15 09:30:07;;;;;;;11.07;9.17;;;;;;;13.21;35.77;98763.81;6231753;28;20222;-72
2022/03/15 09:33:09;;;;;;;13.43;8.73;;;;;;;13.46;35.52;98758.38;6231249;28;20241;-73
2022/03/15 09:36:12;;;;;;;17.40;8.93;;;;;;;13.39;34.77;98762.44;6231758;28;20213;-72
2022/03/15 09:39:15;;;;;;;13.10;8.50;;;;;;;13.54;34.71;98753.34;6232860;28;20227;-72
2022/03/15 09:42:20;;;;;;;13.83;9.03;;;;;;;13.62;34.86;98747.47;6231235;28;20714;-71
2022/03/15 09:45:23;;;;;;;13.60;8.57;;;;;;;13.44;34.09;98746.19;6229935;28;20599;-72
2022/03/15 09:48:25;;;;;;;23.10;10.03;;;;;;;13.34;34.54;98742.53;6232118;28;20246;-73
2022/03/15 09:51:32;;;;;;;12.20;8.40;;;;;;;13.82;33.94;98736.19;6230866;28;20243;-72
2022/03/15 09:54:35;;;;;;;14.97;8.87;;;;;;;13.54;34.12;98732.13;6230266;28;20522;-72
2022/03/15 09:57:38;;;;;;;13.80;9.30;;;;;;;13.52;34.46;98725.25;6231260;28;20233;-72
2022/03/15 10:00:41;;;;;;;13.03;8.63;;;;;;;13.97;34.63;98726.22;6231875;28;20242;-71
2022/03/15 10:03:45;;;;;;;13.47;9.67;;;;;;;13.79;33.73;98720.47;6230545;28;20239;-72
2022/03/15 10:06:48;;;;;;;13.23;8.60;;;;;;;14.38;33.97;98712.31;6229316;28;20228;-70
2022/03/15 10:09:52;;;;;;;12.83;9.17;;;;;;;14.67;33.39;98702.91;6228410;28;20706;-71
2022/03/15 10:12:54;;;;;;;12.73;8.90;;;;;;;14.48;33.33;98701.84;6228918;28;20268;-70
2022/03/15 10:16:00;;;;;;;16.73;9.90;;;;;;;14.37;33.63;98694.72;6228483;28;20575;-71
2022/03/15 10:19:04;;;;;;;10.77;8.93;;;;;;;14.72;33.59;98698.06;6228046;28;20235;-71
2022/03/15 10:22:09;;;;;;;13.23;8.50;;;;;;;14.83;32.14;98691.03;6228403;28;20236;-72
2022/03/15 10:25:12;;;;;;;28.10;10.93;;;;;;;14.86;32.26;98696.13;6228694;28;20576;-71
2022/03/15 10:28:15;;;;;;;11.23;8.60;;;;;;;15.07;32.42;98697.84;6203144;28;20323;-71
2022/03/15 10:31:17;;;;;;;10.57;8.00;;;;;;;15.26;32.77;98686.53;6225117;28;20438;-71
2022/03/15 10:34:21;;;;;;;52.73;13.40;;;;;;;15.45;32.28;98684.03;6227783;28;20318;-72
2022/03/15 10:37:31;;;;;;;18.30;9.80;;;;;;;15.04;31.78;98679.50;6226069;28;20224;-71
2022/03/15 10:40:36;;;;;;;35.87;11.63;;;;;;;15.00;33.00;98682.53;6227148;28;20290;-70
2022/03/15 10:43:38;;;;;;;13.57;8.07;;;;;;;14.83;33.02;98678.59;6226298;28;20235;-71
2022/03/15 10:46:40;;;;;;;13.17;8.77;;;;;;;15.12;32.96;98660.25;6227039;28;20602;-72
2022/03/15 10:49:56;;;;;;;13.70;8.13;;;;;;;15.54;32.21;98653.16;6226751;28;20238;-70
2022/03/15 10:53:05;;;;;;;11.60;8.47;;;;;;;15.71;32.57;98630.44;6227443;28;20228;-71
2022/03/15 10:56:21;;;;;;;13.50;9.47;;;;;;;15.56;32.26;98627.28;6226093;28;20224;-71
2022/03/15 10:59:23;;;;;;;12.00;8.60;;;;;;;15.63;32.10;98631.09;6203914;28;20221;-70
2022/03/15 11:02:30;;;;;;;12.60;8.23;;;;;;;15.44;32.14;98625.63;6224546;28;20278;-70
2022/03/15 11:05:34;;;;;;;10.00;8.53;;;;;;;15.12;32.55;98629.19;6227344;28;20602;-71
2022/03/15 11:08:36;;;;;;;11.77;8.50;;;;;;;15.23;32.47;98622.13;6226378;28;20228;-71
2022/03/15 11:11:39;;;;;;;9.90;7.97;;;;;;;15.12;32.63;98605.25;6225122;28;20232;-71
2022/03/15 11:14:48;;;;;;;14.27;9.27;;;;;;;14.87;32.95;98595.00;6225088;28;20235;-72
2022/03/15 11:18:03;;;;;;;9.40;7.83;;;;;;;14.57;33.63;98590.41;6208545;28;20590;-71
2022/03/15 11:21:05;;;;;;;12.30;8.33;;;;;;;14.57;33.55;98585.09;6226710;28;20576;-70
2022/03/15 11:24:12;;;;;;;8.47;7.13;;;;;;;14.73;33.78;98580.19;6210426;28;20587;-72
2022/03/15 11:27:16;;;;;;;12.17;7.60;;;;;;;14.86;33.60;98556.09;6222715;28;20217;-71
2022/03/15 11:30:19;;;;;;;8.87;7.47;;;;;;;14.98;33.43;98554.19;6201144;28;20223;-72
2022/03/15 11:33:22;;;;;;;10.83;7.17;;;;;;;15.03;32.89;98539.56;6221311;28;20231;-71
2022/03/15 11:36:25;;;;;;;10.53;7.53;;;;;;;14.73;33.26;98534.16;6224708;28;20523;-71
2022/03/15 11:39:49;;;;;;;11.13;7.27;;;;;;;14.68;33.27;98521.25;6224130;28;20239;-71
2022/03/15 11:43:19;;;;;;;12.17;8.00;;;;;;;14.66;33.33;98512.59;6223192;28;20239;-73
2022/03/15 11:46:27;;;;;;;10.27;6.70;;;;;;;14.65;33.67;98520.69;6235095;28;20246;-70
2022/03/15 11:49:48;;;;;;;10.53;6.83;;;;;;;14.88;33.18;98500.97;6218363;28;20335;-71
2022/03/15 11:53:11;;;;;;;7.93;5.80;;;;;;;15.28;32.49;98500.22;6223291;28;20255;-72
2022/03/15 11:56:33;;;;;;;7.77;5.93;;;;;;;15.28;31.83;98494.91;6222391;28;20228;-71
2022/03/15 11:59:48;;;;;;;7.87;5.57;;;;;;;15.50;31.22;98500.91;6206939;28;20848;-71
2022/03/15 12:02:50;;;;;;;10.70;4.87;;;;;;;15.66;30.11;98497.78;6222042;28;20236;-71
2022/03/15 12:05:57;;;;;;;8.13;5.43;;;;;;;15.86;29.34;98494.19;6223147;28;20846;-72
2022/03/15 12:09:01;;;;;;;7.10;4.80;;;;;;;16.02;29.55;98492.81;6211085;28;20243;-71
2022/03/15 12:12:10;;;;;;;7.50;5.20;;;;;;;16.32;29.08;98487.38;6228026;28;20274;-71
2022/03/15 12:15:15;;;;;;;7.77;5.53;;;;;;;16.45;28.94;98487.13;6215727;28;20699;-72
2022/03/15 12:21:26;;;;;;;7.50;4.60;;;;;;;16.47;28.23;98471.84;6237210;28;20235;-72
2022/03/15 12:24:32;;;;;;;5.57;4.60;;;;;;;16.84;27.82;98475.47;6232315;28;20223;-72
2022/03/15 12:27:43;;;;;;;10.77;5.90;;;;;;;16.94;27.12;98457.63;6233230;28;20231;-71
2022/03/15 12:30:51;;;;;;;7.70;5.53;;;;;;;16.81;28.34;98451.75;6231357;28;20254;-72
2022/03/15 12:34:23;;;;;;;7.00;5.00;;;;;;;17.03;27.31;98439.09;6230683;28;20594;-72
2022/03/15 12:37:35;;;;;;;8.97;5.20;;;;;;;16.83;27.71;98436.47;6180778;28;20586;-72
2022/03/15 12:40:43;;;;;;;8.63;5.43;;;;;;;17.08;26.93;98442.97;6163713;28;20247;-72
2022/03/15 12:43:52;;;;;;;8.93;5.67;;;;;;;16.64;27.59;98438.34;6180623;28;20734;-72
2022/03/15 12:46:55;;;;;;;6.63;4.97;;;;;;;16.57;28.19;98430.84;6180283;28;20241;-73
2022/03/15 12:50:10;;;;;;;5.30;4.50;;;;;;;16.56;28.39;98418.53;6180190;28;20260;-73
2022/03/15 12:53:15;;;;;;;6.80;5.00;;;;;;;16.16;29.06;98425.84;6180394;28;20240;-73
2022/03/15 12:56:17;;;;;;;9.93;5.23;;;;;;;15.84;30.07;98413.63;6165951;28;20237;-72
2022/03/15 12:59:24;;;;;;;6.23;4.57;;;;;;;15.87;29.81;98421.31;6180234;28;20236;-73
2022/03/15 13:02:29;;;;;;;6.50;4.97;;;;;;;15.98;29.99;98427.50;6164221;28;20240;-72
2022/03/15 13:05:32;;;;;;;8.50;5.50;;;;;;;15.84;30.00;98429.59;6180652;28;20779;-72
2022/03/15 13:08:39;;;;;;;7.80;5.47;;;;;;;15.75;30.26;98430.44;6179389;28;20236;-72
2022/03/15 13:11:48;;;;;;;5.47;4.63;;;;;;;15.95;30.15;98425.13;6163536;28;20237;-71
2022/03/15 13:14:54;;;;;;;8.30;5.50;;;;;;;15.90;30.31;98430.00;6228234;28;20220;-72
2022/03/15 13:17:59;;;;;;;8.10;5.57;;;;;;;15.98;30.14;98407.03;6232051;28;20707;-73
2022/03/15 13:21:08;;;;;;;9.07;5.30;;;;;;;15.78;30.87;98397.34;6230795;28;20348;-71
2022/03/15 13:24:16;;;;;;;6.13;5.33;;;;;;;15.62;30.59;98394.41;6231650;28;20222;-72
2022/03/15 13:27:19;;;;;;;6.60;5.07;;;;;;;15.69;30.84;98400.84;6230889;28;20222;-72
2022/03/15 13:30:24;;;;;;;7.97;5.83;;;;;;;15.63;30.87;98388.09;6232464;28;20259;-73
2022/03/15 13:33:39;;;;;;;7.97;5.70;;;;;;;15.86;30.17;98384.22;6230075;28;20723;-71
2022/03/15 13:36:42;;;;;;;9.13;6.10;;;;;;;16.04;29.54;98387.03;6228851;28;20790;-71
2022/03/15 13:39:45;;;;;;;12.43;6.33;;;;;;;16.14;29.84;98391.38;6228915;28;20239;-72
2022/03/15 13:42:48;;;;;;;9.77;6.47;;;;;;;16.34;29.50;98392.19;6230602;28;20733;-72
2022/03/15 13:45:51;;;;;;;7.23;5.60;;;;;;;16.29;29.69;98401.56;6228289;28;20223;-72
2022/03/15 13:48:55;;;;;;;11.13;5.77;;;;;;;15.99;30.08;98382.09;6228780;28;20323;-74
2022/03/15 13:52:04;;;;;;;14.03;6.93;;;;;;;15.30;31.66;98376.78;6230232;28;20726;-73
2022/03/15 13:55:10;;;;;;;8.23;6.20;;;;;;;15.26;31.20;98372.72;6232046;28;20609;-71
2022/03/15 13:58:12;;;;;;;9.33;6.03;;;;;;;15.28;31.24;98368.09;6229971;28;20236;-71
2022/03/15 14:01:16;;;;;;;8.33;6.13;;;;;;;15.27;31.14;98374.38;6229849;28;20232;-72
2022/03/15 14:04:24;;;;;;;6.83;5.67;;;;;;;15.22;31.41;98367.81;6234714;28;20238;-72
2022/03/15 14:07:28;;;;;;;13.37;7.57;;;;;;;15.11;31.45;98363.44;6229745;28;20663;-73
2022/03/15 14:10:30;;;;;;;12.93;7.07;;;;;;;14.98;31.47;98368.13;6227916;28;20656;-72
2022/03/15 14:13:32;;;;;;;9.57;6.03;;;;;;;14.92;31.08;98360.69;6230543;28;20599;-71
2022/03/15 14:16:37;;;;;;;8.70;7.13;;;;;;;15.09;30.97;98365.38;6230003;28;20231;-72
2022/03/15 14:19:50;;;;;;;7.10;5.83;;;;;;;15.41;30.66;98366.03;6229594;28;20231;-72
2022/03/15 14:22:54;;;;;;;9.47;6.03;;;;;;;15.59;30.37;98365.38;6211210;28;20234;-72
2022/03/15 14:26:04;;;;;;;7.83;6.37;;;;;;;15.61;29.86;98361.63;6229709;28;20765;-72